Time;durP1;ratioP1;P1;durP2;ratioP2;P2;SDS_P1;SDS_P2;PMS_P1;PMS_P2;Temp;Humidity;BMP_temperature;BMP_pressure;BME280_temperature;BME280_humidity;BME280_pressure;Samples;Min_cycle;Max_cycle;Signal;HPM_P1;HPM_P2
2023/09/18 00:00:24;;;;;;;4.38;1.77;;;;;;;19.74;98.98;97778.75;4126702;28;20213;-88
2023/09/18 00:02:26;;;;;;;2.22;1.58;;;;;;;19.73;98.96;97783.50;4142065;28;20213;-88
2023/09/18 00:04:27;;;;;;;1.70;1.20;;;;;;;19.70;98.83;97783.31;4154925;28;20200;-88
2023/09/18 00:06:30;;;;;;;3.13;1.67;;;;;;;19.62;98.83;97786.91;4125854;28;20856;-88
2023/09/18 00:08:31;;;;;;;1.15;1.05;;;;;;;19.64;99.00;97781.88;4142457;28;20264;-87
2023/09/18 00:10:34;;;;;;;1.52;1.42;;;;;;;19.57;98.76;97790.66;4127439;28;20209;-87
2023/09/18 00:12:43;;;;;;;2.45;1.35;;;;;;;19.56;99.12;97788.22;4139577;28;20271;-88
2023/09/18 00:14:48;;;;;;;4.53;1.30;;;;;;;19.54;99.08;97787.72;4146149;28;20768;-88
2023/09/18 00:16:51;;;;;;;3.42;1.40;;;;;;;19.57;99.15;97784.31;4125928;28;20198;-88
2023/09/18 00:19:00;;;;;;;2.80;1.23;;;;;;;19.59;98.92;97790.34;4145929;28;20287;-87
2023/09/18 00:21:10;;;;;;;1.67;1.38;;;;;;;19.54;99.04;97785.78;4145061;28;20208;-86
2023/09/18 00:23:11;;;;;;;1.45;1.30;;;;;;;19.57;98.97;97776.78;4146856;28;20201;-87
2023/09/18 00:25:15;;;;;;;1.35;1.25;;;;;;;19.55;99.50;97775.47;4146537;28;20303;-88
2023/09/18 00:27:17;;;;;;;1.98;1.75;;;;;;;19.47;99.94;97773.50;4142551;28;20204;-88
2023/09/18 00:29:18;;;;;;;1.38;1.27;;;;;;;19.39;99.99;97771.56;4129211;28;20570;-87
2023/09/18 00:31:20;;;;;;;2.60;1.67;;;;;;;19.35;100.00;97762.25;4128628;28;20212;-87
2023/09/18 00:33:22;;;;;;;2.20;1.33;;;;;;;19.39;100.00;97760.47;4130194;28;20268;-87
2023/09/18 00:35:24;;;;;;;2.63;1.52;;;;;;;19.46;100.00;97766.34;4144594;28;20275;-87
2023/09/18 00:37:25;;;;;;;1.88;1.73;;;;;;;19.44;100.00;97757.53;4129857;28;20240;-87
2023/09/18 00:39:27;;;;;;;2.17;1.30;;;;;;;19.45;100.00;97764.72;4144831;28;20721;-88
2023/09/18 00:41:53;;;;;;;1.60;1.42;;;;;;;19.40;100.00;97767.63;4143912;28;20209;-87
2023/09/18 00:44:05;;;;;;;1.40;1.00;;;;;;;19.43;100.00;97769.75;4160773;28;20204;-87
2023/09/18 00:46:08;;;;;;;2.70;2.05;;;;;;;19.43;100.00;97772.53;4150489;28;20220;-87
2023/09/18 00:48:10;;;;;;;2.90;1.80;;;;;;;19.43;100.00;97778.06;4131594;28;20222;-88
2023/09/18 00:50:13;;;;;;;8.57;2.05;;;;;;;19.45;100.00;97784.13;4131620;28;20213;-88
2023/09/18 00:52:16;;;;;;;3.72;1.67;;;;;;;19.49;100.00;97787.88;4139998;28;20206;-88
2023/09/18 00:54:19;;;;;;;2.58;1.88;;;;;;;19.47;100.00;97784.63;4141169;28;20599;-87
2023/09/18 00:56:20;;;;;;;1.90;1.58;;;;;;;19.51;100.00;97791.16;4128553;28;20210;-88
2023/09/18 00:58:32;;;;;;;4.72;3.00;;;;;;;19.57;100.00;97787.91;4127670;28;21009;-88
2023/09/18 01:00:34;;;;;;;5.32;1.73;;;;;;;19.66;100.00;97793.47;4140209;28;20220;-87
2023/09/18 01:02:36;;;;;;;2.55;1.80;;;;;;;19.61;100.00;97788.06;4158458;28;20204;-88
2023/09/18 01:04:38;;;;;;;2.55;1.50;;;;;;;19.55;100.00;97781.03;4128552;28;20285;-87
2023/09/18 01:06:39;;;;;;;3.10;1.60;;;;;;;19.52;100.00;97792.78;4140041;28;20208;-89
2023/09/18 01:08:41;;;;;;;7.53;2.03;;;;;;;19.52;100.00;97798.34;4129241;28;20229;-87
2023/09/18 01:11:00;;;;;;;5.32;2.03;;;;;;;19.49;100.00;97807.31;4146107;28;20714;-86
2023/09/18 01:13:06;;;;;;;1.88;1.63;;;;;;;19.33;100.00;97806.16;4140725;28;20324;-87
2023/09/18 01:15:15;;;;;;;1.60;1.50;;;;;;;19.32;100.00;97815.63;4144519;28;20312;-88
2023/09/18 01:17:23;;;;;;;1.63;1.23;;;;;;;19.44;100.00;97824.13;4163219;28;20307;-90
2023/09/18 01:19:35;;;;;;;5.95;1.50;;;;;;;19.47;100.00;97863.16;4143916;28;20220;-89
2023/09/18 01:21:37;;;;;;;3.80;1.33;;;;;;;19.42;100.00;97856.94;4143142;28;20566;-88
2023/09/18 01:23:39;;;;;;;2.45;1.20;;;;;;;19.18;100.00;97859.28;4128194;28;20210;-89
2023/09/18 01:25:40;;;;;;;5.97;1.45;;;;;;;19.09;100.00;97841.78;4149514;28;20240;-88
2023/09/18 01:27:42;;;;;;;1.58;1.02;;;;;;;19.18;100.00;97837.09;4130346;28;20221;-90
2023/09/18 01:29:57;;;;;;;2.33;1.25;;;;;;;19.18;100.00;97853.75;4131818;28;20300;-90
2023/09/18 01:31:59;;;;;;;2.25;1.60;;;;;;;19.39;100.00;97844.50;4147624;28;20859;-90
2023/09/18 01:34:01;;;;;;;1.90;1.50;;;;;;;19.14;100.00;97841.63;4128653;28;20209;-89
2023/09/18 01:36:10;;;;;;;2.72;2.22;;;;;;;19.24;100.00;97821.97;4143555;28;20225;-90
2023/09/18 01:38:12;;;;;;;2.17;1.73;;;;;;;19.19;100.00;97822.09;4146553;28;20224;-88
2023/09/18 01:40:28;;;;;;;2.28;1.20;;;;;;;19.31;100.00;97836.19;4146070;28;20696;-89
2023/09/18 01:42:30;;;;;;;6.40;2.42;;;;;;;19.33;100.00;97839.44;4129224;28;20756;-87
2023/09/18 01:44:34;;;;;;;2.22;1.75;;;;;;;19.33;100.00;97837.50;4129388;28;20213;-90
2023/09/18 01:46:36;;;;;;;2.13;1.20;;;;;;;19.35;100.00;97838.00;4126562;28;20202;-90
2023/09/18 01:48:45;;;;;;;4.60;1.95;;;;;;;19.24;100.00;97831.09;4160582;28;20221;-89
2023/09/18 01:50:49;;;;;;;2.13;1.90;;;;;;;19.27;100.00;97835.19;4164439;28;20734;-89
2023/09/18 01:52:51;;;;;;;7.25;2.13;;;;;;;19.30;100.00;97826.19;4147868;28;20209;-89
2023/09/18 01:54:54;;;;;;;3.67;2.13;;;;;;;19.36;100.00;97822.97;4131016;28;20225;-89
2023/09/18 01:56:56;;;;;;;1.95;1.38;;;;;;;19.42;100.00;97820.84;4127892;28;20268;-89
2023/09/18 01:59:00;;;;;;;3.20;1.52;;;;;;;19.22;100.00;97822.28;4128468;28;20233;-89
2023/09/18 02:01:03;;;;;;;1.77;1.20;;;;;;;19.28;100.00;97823.78;4143535;28;20205;-90
2023/09/18 02:03:07;;;;;;;4.05;1.38;;;;;;;19.35;100.00;97820.50;4146595;28;20567;-89
2023/09/18 02:05:23;;;;;;;1.73;1.30;;;;;;;19.24;100.00;97814.44;4130104;28;20209;-89
2023/09/18 02:07:26;;;;;;;8.45;2.03;;;;;;;19.37;100.00;97807.94;4145395;28;20201;-88
2023/09/18 02:09:28;;;;;;;1.45;1.35;;;;;;;19.24;100.00;97808.09;4125367;28;20209;-90
2023/09/18 02:11:48;;;;;;;1.67;1.25;;;;;;;19.40;100.00;97806.50;4145407;28;20825;-89
2023/09/18 02:13:50;;;;;;;2.00;1.10;;;;;;;19.40;100.00;97795.38;4131248;28;20214;-88
2023/09/18 02:15:52;;;;;;;3.60;1.10;;;;;;;19.38;100.00;97801.25;4128480;28;20295;-89
2023/09/18 02:17:54;;;;;;;2.78;1.88;;;;;;;19.30;100.00;97795.69;4147237;28;20862;-89
2023/09/18 02:20:11;;;;;;;2.47;1.52;;;;;;;19.23;100.00;97781.47;4145474;28;20255;-87
2023/09/18 02:22:13;;;;;;;3.25;2.13;;;;;;;19.43;100.00;97780.84;4146896;28;20209;-89
2023/09/18 02:24:15;;;;;;;2.63;1.35;;;;;;;19.18;100.00;97767.75;4128319;28;20209;-89
2023/09/18 02:26:18;;;;;;;1.58;1.48;;;;;;;19.23;100.00;97751.78;4129123;28;20202;-86
2023/09/18 02:28:20;;;;;;;2.60;1.30;;;;;;;19.22;100.00;97741.00;4125881;28;20701;-89
2023/09/18 02:30:22;;;;;;;5.25;1.52;;;;;;;19.34;100.00;97738.41;4128056;28;20214;-90
2023/09/18 02:32:39;;;;;;;4.05;1.63;;;;;;;19.29;100.00;97738.56;4129609;28;20214;-90
2023/09/18 02:34:41;;;;;;;7.15;1.75;;;;;;;19.36;100.00;97736.13;4126104;28;20201;-88
2023/09/18 02:36:42;;;;;;;1.50;1.35;;;;;;;19.25;100.00;97720.94;4123997;28;20292;-89
2023/09/18 02:38:44;;;;;;;4.03;2.13;;;;;;;19.28;100.00;97734.16;4127574;28;20262;-90
2023/09/18 02:41:04;;;;;;;8.45;1.33;;;;;;;19.45;100.00;97743.31;4129513;28;20215;-90
2023/09/18 02:43:27;;;;;;;3.10;1.60;;;;;;;19.37;100.00;97754.41;4161668;28;20269;-90
2023/09/18 02:45:28;;;;;;;7.35;1.50;;;;;;;19.35;100.00;97740.88;4127995;28;20208;-90
2023/09/18 02:47:41;;;;;;;2.47;1.20;;;;;;;19.40;100.00;97756.53;4126801;28;20240;-89
2023/09/18 02:49:54;;;;;;;1.80;1.42;;;;;;;19.47;100.00;97767.97;4144344;28;20206;-90
2023/09/18 02:52:15;;;;;;;2.67;1.20;;;;;;;19.62;100.00;97781.34;4130934;28;20214;-90
2023/09/18 02:55:05;;;;;;;1.58;1.13;;;;;;;19.72;100.00;97792.94;4141666;28;20718;-92
2023/09/18 02:57:24;;;;;;;12.70;2.25;;;;;;;19.71;100.00;97804.41;4106675;28;20233;-90
2023/09/18 03:02:44;;;;;;;7.47;1.23;;;;;;;19.80;100.00;97821.88;4151376;28;20196;-89
2023/09/18 03:05:08;;;;;;;7.05;1.58;;;;;;;19.82;100.00;97814.03;4142260;28;20212;-91
2023/09/18 03:07:12;;;;;;;2.08;1.30;;;;;;;19.84;100.00;97811.75;4132268;28;20220;-89
2023/09/18 03:09:15;;;;;;;4.80;1.45;;;;;;;19.91;100.00;97807.31;4138508;28;20738;-91
2023/09/18 03:14:49;;;;;;;15.70;1.58;;;;;;;20.04;100.00;97808.31;4099028;28;20215;-91
2023/09/18 03:17:12;;;;;;;13.05;2.72;;;;;;;19.98;100.00;97795.75;4108978;28;20631;-91
2023/09/18 03:19:18;;;;;;;7.68;1.13;;;;;;;20.05;100.00;97807.19;4134393;28;20801;-90
2023/09/18 03:22:03;;;;;;;15.57;2.10;;;;;;;20.14;99.11;97800.50;4098896;28;20202;-89
2023/09/18 03:24:05;;;;;;;4.20;2.15;;;;;;;20.23;98.13;97808.78;4116350;28;20209;-86
2023/09/18 03:26:07;;;;;;;1.88;1.20;;;;;;;20.40;96.30;97812.38;4123148;28;20194;-90
2023/09/18 03:28:08;;;;;;;3.00;0.90;;;;;;;20.69;92.66;97811.63;4140780;28;20227;-86
2023/09/18 03:30:28;;;;;;;2.10;1.25;;;;;;;20.74;92.67;97814.22;4142802;28;20212;-89
2023/09/18 03:32:30;;;;;;;7.68;2.80;;;;;;;20.88;90.89;97817.66;4141986;28;20212;-89
2023/09/18 03:34:31;;;;;;;5.80;2.70;;;;;;;21.05;89.57;97809.25;4141519;28;20197;-89
2023/09/18 03:36:43;;;;;;;2.28;1.42;;;;;;;21.03;89.69;97790.09;4125978;28;20342;-87
2023/09/18 03:38:48;;;;;;;3.90;2.63;;;;;;;21.12;88.75;97798.41;4141322;28;20286;-87
2023/09/18 03:40:53;;;;;;;3.85;1.35;;;;;;;21.08;89.61;97781.56;4143717;28;20209;-90
2023/09/18 03:42:54;;;;;;;8.82;1.13;;;;;;;21.05;91.47;97789.75;4144072;28;20231;-89
2023/09/18 03:44:56;;;;;;;3.58;1.48;;;;;;;21.00;91.41;97781.59;4144317;28;20201;-87
2023/09/18 03:47:19;;;;;;;2.50;1.35;;;;;;;20.85;93.95;97760.69;4141906;28;20634;-91
2023/09/18 03:49:21;;;;;;;2.85;1.23;;;;;;;20.81;94.30;97775.59;4162029;28;20204;-91
2023/09/18 03:51:22;;;;;;;2.38;1.15;;;;;;;20.71;95.80;97784.31;4125968;28;20206;-91
2023/09/18 03:53:25;;;;;;;4.32;1.30;;;;;;;20.65;96.77;97772.53;4140955;28;20220;-88
2023/09/18 03:55:27;;;;;;;13.95;2.60;;;;;;;20.63;96.89;97766.50;4156923;28;20204;-88
2023/09/18 03:57:47;;;;;;;8.25;1.38;;;;;;;20.51;97.99;97762.81;4126857;28;20387;-90
2023/09/18 03:59:52;;;;;;;12.18;1.30;;;;;;;20.52;98.73;97764.44;4144287;28;20270;-91
2023/09/18 04:01:53;;;;;;;4.25;0.98;;;;;;;20.38;99.85;97752.72;4123574;28;20217;-87
2023/09/18 04:04:08;;;;;;;4.68;1.92;;;;;;;20.37;99.58;97756.66;4128490;28;20210;-90
2023/09/18 04:06:10;;;;;;;20.77;1.85;;;;;;;20.23;100.00;97758.78;4151959;28;20270;-91
2023/09/18 04:08:13;;;;;;;2.03;0.80;;;;;;;20.19;100.00;97755.03;4132696;28;20595;-92
2023/09/18 04:10:22;;;;;;;5.43;1.52;;;;;;;20.14;100.00;97744.09;4127716;28;20639;-89
2023/09/18 04:12:35;;;;;;;4.53;1.10;;;;;;;20.14;100.00;97738.53;4129497;28;20747;-91
2023/09/18 04:14:37;;;;;;;7.28;1.23;;;;;;;20.12;100.00;97738.88;4144832;28;20232;-90
2023/09/18 04:16:41;;;;;;;8.50;1.55;;;;;;;20.05;100.00;97740.50;4127806;28;20230;-91
2023/09/18 04:18:49;;;;;;;3.63;2.35;;;;;;;19.99;100.00;97733.47;4125637;28;20226;-91
2023/09/18 04:20:59;;;;;;;1.58;1.08;;;;;;;19.91;100.00;97734.31;4141354;28;20599;-89
2023/09/18 04:23:42;;;;;;;6.90;1.30;;;;;;;19.85;100.00;97732.84;4146249;28;20260;-91
2023/09/18 04:25:46;;;;;;;1.67;0.93;;;;;;;19.84;100.00;97728.44;4095281;28;20732;-91
2023/09/18 04:27:51;;;;;;;1.88;1.10;;;;;;;19.86;100.00;97720.59;4156353;28;20228;-91
2023/09/18 04:29:52;;;;;;;8.80;1.55;;;;;;;19.73;100.00;97727.97;4126726;28;20209;-89
2023/09/18 04:31:54;;;;;;;9.82;2.47;;;;;;;19.73;100.00;97727.16;4122851;28;20213;-91
2023/09/18 04:34:19;;;;;;;2.95;2.05;;;;;;;19.74;100.00;97734.31;4127837;28;20221;-91
2023/09/18 04:36:20;;;;;;;17.67;1.80;;;;;;;19.65;100.00;97747.41;4136435;28;20249;-90
2023/09/18 04:38:35;;;;;;;2.83;1.35;;;;;;;19.63;100.00;97750.50;4131344;28;20273;-93
2023/09/18 04:40:57;;;;;;;4.32;1.33;;;;;;;19.66;100.00;97771.25;4142914;28;20202;-91
2023/09/18 04:43:18;;;;;;;2.22;1.30;;;;;;;19.49;100.00;97782.31;4142447;28;20754;-92
2023/09/18 04:45:22;;;;;;;5.22;1.77;;;;;;;19.55;100.00;97781.03;4127798;28;20222;-93
2023/09/18 04:47:26;;;;;;;11.20;1.80;;;;;;;19.55;100.00;97772.69;4129917;28;20898;-92
2023/09/18 04:49:30;;;;;;;29.33;2.03;;;;;;;19.55;100.00;97778.25;4124158;28;20285;-92
2023/09/18 04:51:34;;;;;;;10.48;2.35;;;;;;;19.52;100.00;97787.25;4128621;28;20325;-92
2023/09/18 04:53:36;;;;;;;5.65;1.75;;;;;;;19.54;100.00;97784.94;4128855;28;20623;-92
2023/09/18 04:55:54;;;;;;;4.22;1.48;;;;;;;19.63;100.00;97802.41;4131778;28;20225;-92
2023/09/18 04:57:58;;;;;;;8.68;1.60;;;;;;;19.56;100.00;97794.59;4126626;28;20234;-92
2023/09/18 05:00:17;;;;;;;13.38;2.75;;;;;;;19.67;100.00;97806.19;4142785;28;20214;-92
2023/09/18 05:02:19;;;;;;;3.15;1.30;;;;;;;19.59;100.00;97809.78;4129139;28;20205;-91
2023/09/18 05:04:21;;;;;;;6.38;1.17;;;;;;;19.57;100.00;97800.97;4130892;28;20214;-89
2023/09/18 05:06:45;;;;;;;4.32;0.93;;;;;;;19.49;100.00;97810.91;4145809;28;20220;-91
2023/09/18 05:09:10;;;;;;;6.93;1.85;;;;;;;19.43;100.00;97822.47;4147784;28;20229;-92
2023/09/18 05:11:49;;;;;;;5.43;1.42;;;;;;;19.45;100.00;97803.56;4145581;28;20206;-90
2023/09/18 05:14:01;;;;;;;3.67;0.80;;;;;;;19.54;100.00;97779.41;4142879;28;20240;-92
2023/09/18 05:16:25;;;;;;;2.50;1.00;;;;;;;19.49;100.00;97760.13;4132760;28;20279;-92
2023/09/18 05:18:29;;;;;;;4.57;1.17;;;;;;;19.49;100.00;97760.94;4129684;28;20238;-92
2023/09/18 05:20:42;;;;;;;2.30;2.10;;;;;;;19.44;100.00;97763.09;4131360;28;20214;-92
2023/09/18 05:23:09;;;;;;;2.80;1.13;;;;;;;19.46;100.00;97769.13;4163504;28;20208;-90
2023/09/18 05:28:22;;;;;;;1.80;0.95;;;;;;;19.32;100.00;97754.56;4157362;28;20347;-92
2023/09/18 05:30:49;;;;;;;14.18;1.83;;;;;;;19.38;100.00;97747.72;4128153;28;20688;-91
2023/09/18 05:33:13;;;;;;;11.93;1.52;;;;;;;19.31;100.00;97766.81;4135833;28;20217;-93
2023/09/18 05:35:39;;;;;;;3.00;1.08;;;;;;;19.41;100.00;97769.25;4144855;28;20671;-92
2023/09/18 05:37:59;;;;;;;2.83;1.20;;;;;;;19.36;100.00;97778.56;4161062;28;20292;-90
2023/09/18 05:40:26;;;;;;;1.95;1.10;;;;;;;19.22;100.00;97765.97;4151690;28;20201;-92
2023/09/18 05:43:11;;;;;;;5.88;2.17;;;;;;;19.30;100.00;97762.38;4128004;28;20764;-92
2023/09/18 05:45:32;;;;;;;4.85;1.02;;;;;;;19.33;100.00;97783.94;4141481;28;20197;-91
2023/09/18 05:48:06;;;;;;;2.83;1.45;;;;;;;19.33;100.00;97792.28;4139891;28;20236;-91
2023/09/18 05:50:17;;;;;;;4.00;1.70;;;;;;;19.33;100.00;97808.94;4132352;28;20205;-92
2023/09/18 05:52:40;;;;;;;8.73;1.83;;;;;;;19.25;100.00;97806.94;4147686;28;20279;-88
2023/09/18 05:55:08;;;;;;;5.63;1.05;;;;;;;19.27;100.00;97801.88;4143304;28;20260;-92
2023/09/18 05:57:16;;;;;;;4.57;1.52;;;;;;;19.29;100.00;97799.59;4131079;28;20283;-93
2023/09/18 05:59:20;;;;;;;7.10;2.33;;;;;;;19.19;100.00;97805.44;4130692;28;20232;-90
2023/09/18 06:02:12;;;;;;;1.83;1.13;;;;;;;19.19;100.00;97816.53;4147930;28;20213;-92
2023/09/18 06:04:40;;;;;;;4.05;1.65;;;;;;;19.18;100.00;97820.44;4107907;28;20199;-93
2023/09/18 06:07:08;;;;;;;7.75;1.73;;;;;;;19.20;100.00;97837.63;4128570;28;20293;-93
2023/09/18 06:09:24;;;;;;;2.47;1.27;;;;;;;19.19;100.00;97830.41;4145605;28;20679;-90
2023/09/18 06:12:00;;;;;;;8.40;1.70;;;;;;;19.22;100.00;97810.34;4111514;28;20218;-91
2023/09/18 06:14:04;;;;;;;7.03;1.38;;;;;;;19.24;100.00;97835.84;4134519;28;20205;-89
2023/09/18 06:16:08;;;;;;;6.70;1.05;;;;;;;19.27;100.00;97843.50;4143895;28;20205;-88
2023/09/18 06:18:10;;;;;;;4.85;1.58;;;;;;;19.22;100.00;97849.19;4144534;28;20252;-90
2023/09/18 06:20:15;;;;;;;5.00;1.83;;;;;;;19.27;100.00;97851.84;4133813;28;20210;-90
2023/09/18 06:22:38;;;;;;;7.80;1.58;;;;;;;19.30;100.00;97849.22;4099643;28;20242;-91
2023/09/18 06:24:56;;;;;;;8.48;1.58;;;;;;;19.28;100.00;97856.22;4110480;28;20214;-89
2023/09/18 06:27:25;;;;;;;3.33;1.00;;;;;;;19.28;100.00;97864.56;4097746;28;20999;-93
2023/09/18 06:29:48;;;;;;;2.08;1.40;;;;;;;19.29;100.00;97855.09;4096193;28;20227;-91
2023/09/18 06:32:12;;;;;;;3.78;1.40;;;;;;;19.32;100.00;97854.47;4089768;28;20633;-92
2023/09/18 06:34:36;;;;;;;2.13;1.10;;;;;;;19.27;100.00;97865.72;4109258;28;20218;-89
2023/09/18 06:36:37;;;;;;;3.47;1.40;;;;;;;19.33;100.00;97864.41;4096862;28;20215;-88
2023/09/18 06:39:08;;;;;;;10.27;1.08;;;;;;;19.27;100.00;97851.84;4097181;29;20242;-90
2023/09/18 06:41:30;;;;;;;3.67;1.70;;;;;;;19.29;100.00;97838.44;4086695;28;20311;-90
2023/09/18 06:44:09;;;;;;;3.65;1.30;;;;;;;19.29;100.00;97849.53;4088763;28;20225;-90
2023/09/18 06:46:13;;;;;;;7.15;1.20;;;;;;;19.37;100.00;97868.19;4110683;28;20202;-90
2023/09/18 06:48:24;;;;;;;2.88;1.20;;;;;;;19.29;100.00;97864.25;4081822;29;20738;-92
2023/09/18 06:50:30;;;;;;;11.05;1.20;;;;;;;19.30;100.00;97862.28;4084863;28;20310;-91
2023/09/18 06:52:32;;;;;;;2.13;1.38;;;;;;;19.28;100.00;97867.34;4089323;28;20509;-89
2023/09/18 06:54:36;;;;;;;1.88;1.05;;;;;;;19.31;100.00;97872.25;4164040;28;20212;-91
2023/09/18 06:56:38;;;;;;;1.92;1.58;;;;;;;19.25;100.00;97868.00;4128424;28;20222;-92
2023/09/18 06:59:13;;;;;;;1.35;1.00;;;;;;;19.36;100.00;97860.97;4128735;28;20248;-93
2023/09/18 07:01:19;;;;;;;2.95;1.40;;;;;;;19.32;100.00;97871.91;4125547;28;20206;-91
2023/09/18 07:03:26;;;;;;;2.80;1.13;;;;;;;19.35;100.00;97859.34;4130950;28;20739;-90
2023/09/18 07:05:35;;;;;;;3.00;1.45;;;;;;;19.42;100.00;97866.09;4148120;28;20271;-93
2023/09/18 07:08:19;;;;;;;8.27;1.58;;;;;;;19.36;100.00;97850.72;4158427;28;20256;-92
2023/09/18 07:10:39;;;;;;;5.82;1.63;;;;;;;19.41;100.00;97858.06;4163293;28;20212;-92
2023/09/18 07:12:41;;;;;;;5.22;1.52;;;;;;;19.44;100.00;97861.00;4130891;28;20229;-88
2023/09/18 07:14:43;;;;;;;6.18;0.90;;;;;;;19.50;100.00;97864.44;4129041;28;20216;-88
2023/09/18 07:16:54;;;;;;;1.30;1.20;;;;;;;19.59;100.00;97868.88;4131656;28;20222;-91
2023/09/18 07:21:41;;;;;;;1.52;1.25;;;;;;;19.62;100.00;97861.88;4122528;28;20297;-90
2023/09/18 07:23:51;;;;;;;1.50;1.25;;;;;;;19.61;100.00;97865.78;4144825;28;20283;-92
2023/09/18 07:26:15;;;;;;;3.35;1.30;;;;;;;19.68;100.00;97872.50;4139449;28;20214;-91
2023/09/18 07:28:19;;;;;;;2.22;0.68;;;;;;;19.72;100.00;97858.78;4149040;23;20228;-46
2023/09/18 07:30:21;;;;;;;4.65;1.30;;;;;;;19.74;100.00;97862.88;4142133;28;20206;-46
2023/09/18 07:32:26;;;;;;;5.28;1.20;;;;;;;19.79;100.00;97867.47;4142596;28;20205;-46
2023/09/18 07:34:39;;;;;;;3.72;1.30;;;;;;;19.80;100.00;97866.31;4135604;28;20233;-46
2023/09/18 07:36:41;;;;;;;7.57;0.90;;;;;;;19.82;100.00;97869.56;4121544;28;20222;-47
2023/09/18 07:38:43;;;;;;;2.58;1.65;;;;;;;19.83;100.00;97869.25;4125281;28;20261;-46
2023/09/18 07:40:47;;;;;;;0.63;0.63;;;;;;;19.90;100.00;97866.00;4139520;28;20842;-46
2023/09/18 07:42:48;;;;;;;0.90;0.63;;;;;;;19.91;100.00;97879.53;4125557;28;20218;-46
2023/09/18 07:44:50;;;;;;;2.92;1.35;;;;;;;19.93;100.00;97882.00;4142104;28;20622;-46
2023/09/18 07:46:54;;;;;;;3.97;1.40;;;;;;;19.92;100.00;97892.28;4125232;28;20204;-46
2023/09/18 07:48:56;;;;;;;5.18;1.00;;;;;;;19.99;100.00;97887.06;4140778;28;20304;-46
2023/09/18 07:50:58;;;;;;;5.75;1.13;;;;;;;20.03;100.00;97903.88;4135816;28;20695;-46
2023/09/18 07:53:00;;;;;;;9.75;0.80;;;;;;;19.98;100.00;97895.75;4123773;28;20344;-46
2023/09/18 07:55:03;;;;;;;3.45;0.93;;;;;;;19.97;100.00;97888.56;4140776;28;20236;-46
2023/09/18 07:57:09;;;;;;;7.88;0.70;;;;;;;19.99;100.00;97892.63;4125075;28;20700;-47
2023/09/18 07:59:11;;;;;;;1.38;1.13;;;;;;;20.00;100.00;97896.22;4125128;28;20248;-46
2023/09/18 08:01:13;;;;;;;2.88;1.02;;;;;;;19.97;100.00;97896.88;4122564;28;20218;-46
2023/09/18 08:03:15;;;;;;;5.30;0.70;;;;;;;20.00;100.00;97901.78;4128698;28;20245;-47
2023/09/18 08:05:17;;;;;;;2.28;0.65;;;;;;;20.04;100.00;97900.00;4119194;28;20230;-46
2023/09/18 08:07:19;;;;;;;5.85;1.40;;;;;;;20.01;100.00;97895.06;4136656;28;20209;-45
2023/09/18 08:09:21;;;;;;;1.60;0.60;;;;;;;19.99;100.00;97902.94;4141017;28;21025;-46
2023/09/18 08:11:22;;;;;;;1.42;0.68;;;;;;;20.02;99.28;97888.38;4125602;28;20218;-46
2023/09/18 08:13:25;;;;;;;1.45;1.23;;;;;;;19.96;98.55;97886.91;4127410;28;20212;-46
2023/09/18 08:15:27;;;;;;;1.20;1.15;;;;;;;19.95;98.04;97896.38;4122715;28;20316;-46
2023/09/18 08:17:29;;;;;;;1.17;0.70;;;;;;;19.95;99.36;97897.19;4125184;28;20275;-46
2023/09/18 08:19:37;;;;;;;1.38;0.50;;;;;;;19.96;99.53;97895.22;4125570;28;20344;-46
2023/09/18 08:21:38;;;;;;;0.80;0.73;;;;;;;19.96;98.45;97903.56;4141527;28;20559;-46
2023/09/18 08:23:40;;;;;;;2.63;0.60;;;;;;;19.94;99.76;97905.84;4125067;28;20218;-47
2023/09/18 08:25:42;;;;;;;0.50;0.50;;;;;;;20.00;98.57;97904.56;4125841;28;20230;-46
2023/09/18 08:27:44;;;;;;;0.73;0.30;;;;;;;19.94;98.77;97903.06;4110920;28;20206;-46
2023/09/18 08:29:46;;;;;;;0.80;0.80;;;;;;;20.01;98.81;97892.28;4127342;28;20210;-46
2023/09/18 08:31:51;;;;;;;1.33;0.40;;;;;;;19.97;97.79;97896.88;4139730;28;20622;-46
2023/09/18 08:33:53;;;;;;;3.63;0.57;;;;;;;19.99;97.46;97880.69;4143030;28;20786;-47
2023/09/18 08:35:55;;;;;;;2.13;0.60;;;;;;;19.96;97.92;97898.84;4142464;28;20209;-46
2023/09/18 08:37:57;;;;;;;1.77;1.02;;;;;;;20.03;98.04;97903.88;4128926;28;20241;-46
2023/09/18 08:40:00;;;;;;;2.22;1.17;;;;;;;20.05;97.67;97891.34;4124549;28;20257;-46
2023/09/18 08:42:04;;;;;;;3.97;0.90;;;;;;;20.15;97.00;97881.88;4144276;28;20619;-46
2023/09/18 08:44:07;;;;;;;2.88;0.40;;;;;;;20.19;95.91;97880.09;4139421;28;20326;-47
2023/09/18 08:46:09;;;;;;;1.35;0.40;;;;;;;20.24;95.67;97899.38;4141055;28;20267;-46
2023/09/18 08:48:11;;;;;;;0.70;0.70;;;;;;;20.30;96.40;97898.88;4114539;28;20210;-46
2023/09/18 08:50:13;;;;;;;0.50;0.50;;;;;;;20.35;95.45;97900.66;4107292;28;20210;-46
2023/09/18 08:52:15;;;;;;;0.80;0.55;;;;;;;20.29;95.52;97908.34;4130474;28;20300;-47
2023/09/18 08:54:17;;;;;;;2.10;0.60;;;;;;;20.41;95.54;97922.41;4128527;28;20267;-47
2023/09/18 08:56:21;;;;;;;0.30;0.30;;;;;;;20.37;94.83;97903.94;4145374;28;20263;-46
2023/09/18 08:58:23;;;;;;;1.08;0.50;;;;;;;20.38;95.08;97908.38;4144191;28;20326;-46
2023/09/18 09:00:25;;;;;;;0.73;0.47;;;;;;;20.41;95.34;97904.91;4123230;28;20218;-46
2023/09/18 09:02:27;;;;;;;0.40;0.40;;;;;;;20.33;94.76;97908.53;4126294;28;20697;-46
2023/09/18 09:04:29;;;;;;;0.50;0.50;;;;;;;20.37;95.04;97918.66;4144311;28;21000;-46
2023/09/18 09:06:31;;;;;;;0.75;0.30;;;;;;;20.47;94.91;97914.72;4141946;28;20311;-46
2023/09/18 09:08:33;;;;;;;0.47;0.47;;;;;;;20.47;95.09;97917.50;4127641;28;20277;-46
2023/09/18 09:10:35;;;;;;;0.43;0.43;;;;;;;20.52;94.86;97918.16;4139491;28;20216;-45
2023/09/18 09:12:58;;;;;;;0.60;0.60;;;;;;;20.50;95.13;97914.09;4126058;28;20214;-46
2023/09/18 09:15:04;;;;;;;0.63;0.50;;;;;;;20.58;93.71;97916.03;4143415;28;20233;-46
2023/09/18 09:17:06;;;;;;;0.65;0.65;;;;;;;20.58;93.49;97910.47;4128457;28;20210;-46
2023/09/18 09:19:08;;;;;;;5.65;1.10;;;;;;;20.69;92.92;97895.88;4143829;28;20213;-47
2023/09/18 09:21:10;;;;;;;1.85;0.60;;;;;;;20.91;92.24;97904.03;4142983;28;20656;-46
2023/09/18 09:23:12;;;;;;;0.77;0.77;;;;;;;21.08;89.94;97904.00;4122198;28;20213;-47
2023/09/18 09:25:20;;;;;;;1.50;0.38;;;;;;;21.21;89.83;97907.69;4127460;28;20276;-46
2023/09/18 09:27:22;;;;;;;0.32;0.32;;;;;;;21.57;89.53;97916.41;4123032;28;20228;-46
2023/09/18 09:29:23;;;;;;;1.65;1.00;;;;;;;21.75;87.36;97918.78;4125396;28;20218;-46
2023/09/18 09:31:30;;;;;;;2.65;0.47;;;;;;;21.66;86.55;97925.50;4124976;28;20237;-46
2023/09/18 09:33:32;;;;;;;1.13;0.52;;;;;;;21.85;87.39;97914.78;4143628;28;20208;-47
2023/09/18 09:35:36;;;;;;;0.98;0.93;;;;;;;21.69;86.41;97919.28;4127527;28;20308;-47
2023/09/18 09:37:39;;;;;;;1.63;0.90;;;;;;;21.47;86.40;97912.03;4142148;28;20239;-47
2023/09/18 09:39:48;;;;;;;1.10;0.60;;;;;;;21.17;87.95;97917.88;4138715;28;20205;-46
2023/09/18 09:41:53;;;;;;;2.05;0.88;;;;;;;21.20;88.45;97917.22;4144237;28;20208;-46
2023/09/18 09:43:56;;;;;;;2.78;0.52;;;;;;;21.17;87.71;97913.13;4141475;28;20632;-47
2023/09/18 09:46:01;;;;;;;2.95;0.60;;;;;;;21.10;90.02;97912.03;4128970;28;20216;-46
2023/09/18 09:48:05;;;;;;;0.95;0.60;;;;;;;21.19;89.60;97915.56;4125962;28;20229;-47
2023/09/18 09:50:15;;;;;;;1.63;0.50;;;;;;;21.22;88.96;97918.50;4128952;28;20268;-46
2023/09/18 09:52:21;;;;;;;2.67;0.80;;;;;;;21.21;89.60;97929.97;4128037;28;20455;-45
2023/09/18 09:54:38;;;;;;;0.73;0.73;;;;;;;21.25;89.21;97919.81;4140298;28;20376;-46
2023/09/18 09:56:53;;;;;;;0.60;0.60;;;;;;;21.28;88.25;97910.78;4106182;28;20199;-46
2023/09/18 09:59:04;;;;;;;0.60;0.40;;;;;;;21.24;88.94;97918.19;4124115;28;20221;-47
2023/09/18 10:01:10;;;;;;;1.13;0.50;;;;;;;21.28;88.51;97931.09;4125316;28;21271;-46
2023/09/18 10:03:14;;;;;;;0.85;0.50;;;;;;;21.38;89.05;97932.69;4142738;28;20201;-46
2023/09/18 10:05:18;;;;;;;1.52;0.80;;;;;;;21.49;88.58;97939.50;4127175;28;20240;-46
2023/09/18 10:07:20;;;;;;;0.47;0.40;;;;;;;21.56;88.71;97935.06;4142115;28;20263;-46
2023/09/18 10:09:22;;;;;;;1.00;0.80;;;;;;;21.44;87.29;97939.72;4126784;28;20304;-47
2023/09/18 10:11:26;;;;;;;4.68;0.40;;;;;;;21.54;87.97;97933.75;4140483;28;20212;-47